sensor_id;sensor_type;location;lat;lon;timestamp;P1;durP1;ratioP1;P2;durP2;ratioP2
73747;SDS011;62056;52.130;5.428;2022-09-21T00:01:08;5.38;;;2.10;;
73747;SDS011;62056;52.130;5.428;2022-09-21T00:03:37;5.30;;;2.10;;
73747;SDS011;62056;52.130;5.428;2022-09-21T00:06:08;5.30;;;2.40;;
73747;SDS011;62056;52.130;5.428;2022-09-21T00:08:40;4.13;;;2.42;;
73747;SDS011;62056;52.130;5.428;2022-09-21T00:11:10;6.38;;;3.10;;
73747;SDS011;62056;52.130;5.428;2022-09-21T00:13:38;3.47;;;2.53;;
73747;SDS011;62056;52.130;5.428;2022-09-21T00:16:05;5.87;;;2.77;;
73747;SDS011;62056;52.130;5.428;2022-09-21T00:18:34;8.27;;;3.28;;
73747;SDS011;62056;52.130;5.428;2022-09-21T00:21:05;4.45;;;3.08;;
73747;SDS011;62056;52.130;5.428;2022-09-21T00:23:34;5.15;;;3.15;;
73747;SDS011;62056;52.130;5.428;2022-09-21T00:26:08;3.92;;;3.33;;
73747;SDS011;62056;52.130;5.428;2022-09-21T00:28:40;3.30;;;2.40;;
73747;SDS011;62056;52.130;5.428;2022-09-21T00:31:09;5.25;;;2.85;;
73747;SDS011;62056;52.130;5.428;2022-09-21T00:33:38;6.13;;;2.67;;
73747;SDS011;62056;52.130;5.428;2022-09-21T00:36:07;5.95;;;3.17;;
73747;SDS011;62056;52.130;5.428;2022-09-21T00:38:35;3.20;;;2.28;;
73747;SDS011;62056;52.130;5.428;2022-09-21T00:41:03;5.27;;;2.10;;
73747;SDS011;62056;52.130;5.428;2022-09-21T00:43:33;3.55;;;2.40;;
73747;SDS011;62056;52.130;5.428;2022-09-21T00:46:03;5.65;;;2.55;;
73747;SDS011;62056;52.130;5.428;2022-09-21T00:48:32;4.85;;;2.22;;
73747;SDS011;62056;52.130;5.428;2022-09-21T00:51:00;3.33;;;2.03;;
73747;SDS011;62056;52.130;5.428;2022-09-21T00:53:31;2.53;;;1.60;;
73747;SDS011;62056;52.130;5.428;2022-09-21T00:55:58;4.70;;;1.40;;
73747;SDS011;62056;52.130;5.428;2022-09-21T00:58:30;1.98;;;1.33;;
73747;SDS011;62056;52.130;5.428;2022-09-21T01:01:02;5.10;;;1.40;;
73747;SDS011;62056;52.130;5.428;2022-09-21T01:03:29;7.85;;;4.10;;
73747;SDS011;62056;52.130;5.428;2022-09-21T01:05:56;4.53;;;4.13;;
73747;SDS011;62056;52.130;5.428;2022-09-21T01:08:23;5.80;;;3.42;;
73747;SDS011;62056;52.130;5.428;2022-09-21T01:16:43;3.83;;;1.70;;
73747;SDS011;62056;52.130;5.428;2022-09-21T01:30:10;2.20;;;1.40;;
73747;SDS011;62056;52.130;5.428;2022-09-21T01:35:11;2.80;;;1.23;;
73747;SDS011;62056;52.130;5.428;2022-09-21T01:37:45;2.50;;;1.60;;
73747;SDS011;62056;52.130;5.428;2022-09-21T01:43:09;2.15;;;1.35;;
73747;SDS011;62056;52.130;5.428;2022-09-21T01:45:46;4.13;;;1.77;;
73747;SDS011;62056;52.130;5.428;2022-09-21T01:48:17;3.85;;;1.40;;
73747;SDS011;62056;52.130;5.428;2022-09-21T01:50:49;2.78;;;1.50;;
73747;SDS011;62056;52.130;5.428;2022-09-21T01:56:00;2.17;;;1.00;;
73747;SDS011;62056;52.130;5.428;2022-09-21T01:58:38;3.53;;;0.93;;
73747;SDS011;62056;52.130;5.428;2022-09-21T02:01:19;2.13;;;1.27;;
73747;SDS011;62056;52.130;5.428;2022-09-21T02:04:00;2.63;;;0.80;;
73747;SDS011;62056;52.130;5.428;2022-09-21T02:06:31;2.85;;;1.10;;
73747;SDS011;62056;52.130;5.428;2022-09-21T02:08:57;4.93;;;1.42;;
73747;SDS011;62056;52.130;5.428;2022-09-21T02:11:24;3.83;;;1.83;;
73747;SDS011;62056;52.130;5.428;2022-09-21T02:13:52;1.80;;;0.93;;
73747;SDS011;62056;52.130;5.428;2022-09-21T02:16:31;2.70;;;0.80;;
73747;SDS011;62056;52.130;5.428;2022-09-21T02:24:24;3.07;;;1.20;;
73747;SDS011;62056;52.130;5.428;2022-09-21T02:32:23;8.27;;;1.30;;
73747;SDS011;62056;52.130;5.428;2022-09-21T02:35:06;9.25;;;1.20;;
73747;SDS011;62056;52.130;5.428;2022-09-21T02:37:49;1.60;;;1.20;;
73747;SDS011;62056;52.130;5.428;2022-09-21T02:40:28;1.85;;;1.10;;
73747;SDS011;62056;52.130;5.428;2022-09-21T02:43:18;3.03;;;1.15;;
73747;SDS011;62056;52.130;5.428;2022-09-21T02:45:53;4.18;;;1.38;;
73747;SDS011;62056;52.130;5.428;2022-09-21T02:48:31;4.22;;;1.23;;
73747;SDS011;62056;52.130;5.428;2022-09-21T02:51:09;2.03;;;1.20;;
73747;SDS011;62056;52.130;5.428;2022-09-21T02:53:40;5.25;;;1.40;;
73747;SDS011;62056;52.130;5.428;2022-09-21T02:56:08;4.72;;;1.63;;
73747;SDS011;62056;52.130;5.428;2022-09-21T02:58:45;3.88;;;1.30;;
73747;SDS011;62056;52.130;5.428;2022-09-21T03:01:15;3.60;;;1.30;;
73747;SDS011;62056;52.130;5.428;2022-09-21T03:03:44;1.77;;;1.20;;
73747;SDS011;62056;52.130;5.428;2022-09-21T03:06:10;1.80;;;0.90;;
73747;SDS011;62056;52.130;5.428;2022-09-21T03:08:37;4.13;;;2.00;;
73747;SDS011;62056;52.130;5.428;2022-09-21T03:11:04;3.33;;;1.08;;
73747;SDS011;62056;52.130;5.428;2022-09-21T03:13:31;2.28;;;1.00;;
73747;SDS011;62056;52.130;5.428;2022-09-21T03:16:01;2.03;;;0.77;;
73747;SDS011;62056;52.130;5.428;2022-09-21T03:18:30;2.58;;;0.90;;
73747;SDS011;62056;52.130;5.428;2022-09-21T03:20:57;3.35;;;1.00;;
73747;SDS011;62056;52.130;5.428;2022-09-21T03:23:25;3.20;;;1.10;;
73747;SDS011;62056;52.130;5.428;2022-09-21T03:25:52;2.55;;;0.93;;
73747;SDS011;62056;52.130;5.428;2022-09-21T03:28:20;4.97;;;0.90;;
73747;SDS011;62056;52.130;5.428;2022-09-21T03:30:47;1.60;;;0.80;;
73747;SDS011;62056;52.130;5.428;2022-09-21T03:33:15;2.20;;;0.75;;
73747;SDS011;62056;52.130;5.428;2022-09-21T03:35:49;3.15;;;1.00;;
73747;SDS011;62056;52.130;5.428;2022-09-21T03:38:17;2.33;;;0.88;;
73747;SDS011;62056;52.130;5.428;2022-09-21T03:40:47;2.90;;;1.80;;
73747;SDS011;62056;52.130;5.428;2022-09-21T03:43:14;5.93;;;2.10;;
73747;SDS011;62056;52.130;5.428;2022-09-21T03:45:41;5.50;;;1.20;;
73747;SDS011;62056;52.130;5.428;2022-09-21T03:48:09;3.55;;;1.75;;
73747;SDS011;62056;52.130;5.428;2022-09-21T03:50:36;2.40;;;1.08;;
73747;SDS011;62056;52.130;5.428;2022-09-21T03:53:04;2.50;;;1.13;;
73747;SDS011;62056;52.130;5.428;2022-09-21T03:55:30;2.13;;;0.95;;
73747;SDS011;62056;52.130;5.428;2022-09-21T03:57:58;3.30;;;1.58;;
73747;SDS011;62056;52.130;5.428;2022-09-21T04:00:25;1.48;;;1.10;;
73747;SDS011;62056;52.130;5.428;2022-09-21T04:02:52;2.88;;;1.42;;
73747;SDS011;62056;52.130;5.428;2022-09-21T04:05:18;2.23;;;1.03;;
73747;SDS011;62056;52.130;5.428;2022-09-21T04:07:46;2.08;;;1.20;;
73747;SDS011;62056;52.130;5.428;2022-09-21T04:10:14;2.63;;;1.25;;
73747;SDS011;62056;52.130;5.428;2022-09-21T04:12:43;5.18;;;1.00;;
73747;SDS011;62056;52.130;5.428;2022-09-21T04:15:11;2.75;;;1.08;;
73747;SDS011;62056;52.130;5.428;2022-09-21T04:17:39;1.67;;;0.90;;
73747;SDS011;62056;52.130;5.428;2022-09-21T04:20:07;2.20;;;1.17;;
73747;SDS011;62056;52.130;5.428;2022-09-21T04:22:34;2.22;;;1.00;;
73747;SDS011;62056;52.130;5.428;2022-09-21T04:25:09;2.80;;;1.10;;
73747;SDS011;62056;52.130;5.428;2022-09-21T04:27:37;2.95;;;0.90;;
73747;SDS011;62056;52.130;5.428;2022-09-21T04:30:04;2.03;;;0.67;;
73747;SDS011;62056;52.130;5.428;2022-09-21T04:32:31;5.13;;;1.27;;
73747;SDS011;62056;52.130;5.428;2022-09-21T04:34:58;1.40;;;0.68;;
73747;SDS011;62056;52.130;5.428;2022-09-21T04:37:25;4.63;;;1.08;;
73747;SDS011;62056;52.130;5.428;2022-09-21T04:39:51;3.58;;;0.70;;
73747;SDS011;62056;52.130;5.428;2022-09-21T04:42:18;1.63;;;0.90;;
73747;SDS011;62056;52.130;5.428;2022-09-21T04:44:45;2.85;;;0.65;;
73747;SDS011;62056;52.130;5.428;2022-09-21T04:47:11;1.67;;;0.65;;
73747;SDS011;62056;52.130;5.428;2022-09-21T04:49:38;3.10;;;0.60;;
73747;SDS011;62056;52.130;5.428;2022-09-21T04:52:04;4.78;;;1.10;;
73747;SDS011;62056;52.130;5.428;2022-09-21T04:54:31;3.30;;;0.60;;
73747;SDS011;62056;52.130;5.428;2022-09-21T04:56:57;2.20;;;0.70;;
73747;SDS011;62056;52.130;5.428;2022-09-21T04:59:24;3.30;;;0.98;;
73747;SDS011;62056;52.130;5.428;2022-09-21T05:01:51;1.30;;;0.70;;
73747;SDS011;62056;52.130;5.428;2022-09-21T05:04:17;3.40;;;0.60;;
73747;SDS011;62056;52.130;5.428;2022-09-21T05:06:44;1.10;;;0.50;;
73747;SDS011;62056;52.130;5.428;2022-09-21T05:09:10;2.75;;;0.75;;
73747;SDS011;62056;52.130;5.428;2022-09-21T05:11:55;1.50;;;0.80;;
73747;SDS011;62056;52.130;5.428;2022-09-21T05:14:22;1.23;;;0.68;;
73747;SDS011;62056;52.130;5.428;2022-09-21T05:16:48;4.55;;;0.82;;
73747;SDS011;62056;52.130;5.428;2022-09-21T05:19:15;1.00;;;0.50;;
73747;SDS011;62056;52.130;5.428;2022-09-21T05:21:42;1.83;;;0.70;;
73747;SDS011;62056;52.130;5.428;2022-09-21T05:24:09;1.60;;;0.70;;
73747;SDS011;62056;52.130;5.428;2022-09-21T05:26:35;1.92;;;0.60;;
73747;SDS011;62056;52.130;5.428;2022-09-21T05:29:02;5.38;;;0.70;;
73747;SDS011;62056;52.130;5.428;2022-09-21T05:36:40;2.17;;;1.02;;
73747;SDS011;62056;52.130;5.428;2022-09-21T05:39:07;1.80;;;1.10;;
73747;SDS011;62056;52.130;5.428;2022-09-21T05:41:34;2.38;;;1.20;;
73747;SDS011;62056;52.130;5.428;2022-09-21T05:44:01;1.80;;;0.90;;
73747;SDS011;62056;52.130;5.428;2022-09-21T05:49:25;1.50;;;0.90;;
73747;SDS011;62056;52.130;5.428;2022-09-21T06:02:55;2.10;;;0.80;;
73747;SDS011;62056;52.130;5.428;2022-09-21T06:05:24;1.52;;;0.95;;
73747;SDS011;62056;52.130;5.428;2022-09-21T06:07:51;4.32;;;1.10;;
73747;SDS011;62056;52.130;5.428;2022-09-21T06:10:17;1.57;;;0.87;;
73747;SDS011;62056;52.130;5.428;2022-09-21T06:12:44;1.33;;;0.90;;
73747;SDS011;62056;52.130;5.428;2022-09-21T06:15:12;2.72;;;0.98;;
73747;SDS011;62056;52.130;5.428;2022-09-21T06:17:41;3.28;;;0.80;;
73747;SDS011;62056;52.130;5.428;2022-09-21T06:20:08;2.80;;;0.75;;
73747;SDS011;62056;52.130;5.428;2022-09-21T06:22:35;6.20;;;1.53;;
73747;SDS011;62056;52.130;5.428;2022-09-21T06:25:02;1.77;;;0.75;;
73747;SDS011;62056;52.130;5.428;2022-09-21T06:27:29;1.52;;;1.10;;
73747;SDS011;62056;52.130;5.428;2022-09-21T06:29:55;2.40;;;1.60;;
73747;SDS011;62056;52.130;5.428;2022-09-21T06:32:23;3.65;;;1.30;;
73747;SDS011;62056;52.130;5.428;2022-09-21T06:34:49;2.17;;;1.50;;
73747;SDS011;62056;52.130;5.428;2022-09-21T06:37:16;2.10;;;1.60;;
73747;SDS011;62056;52.130;5.428;2022-09-21T06:39:43;2.45;;;1.38;;
73747;SDS011;62056;52.130;5.428;2022-09-21T06:42:09;2.55;;;1.73;;
73747;SDS011;62056;52.130;5.428;2022-09-21T06:44:36;3.80;;;1.48;;
73747;SDS011;62056;52.130;5.428;2022-09-21T06:47:02;2.40;;;1.60;;
73747;SDS011;62056;52.130;5.428;2022-09-21T06:49:29;1.83;;;1.48;;
73747;SDS011;62056;52.130;5.428;2022-09-21T06:51:56;2.55;;;1.30;;
73747;SDS011;62056;52.130;5.428;2022-09-21T06:54:23;3.08;;;1.42;;
73747;SDS011;62056;52.130;5.428;2022-09-21T06:56:50;2.42;;;1.85;;
73747;SDS011;62056;52.130;5.428;2022-09-21T06:59:16;2.87;;;1.70;;
73747;SDS011;62056;52.130;5.428;2022-09-21T07:01:42;3.78;;;1.67;;
73747;SDS011;62056;52.130;5.428;2022-09-21T07:04:09;3.50;;;1.65;;
73747;SDS011;62056;52.130;5.428;2022-09-21T07:06:36;4.18;;;2.03;;
73747;SDS011;62056;52.130;5.428;2022-09-21T07:09:02;4.03;;;1.80;;
73747;SDS011;62056;52.130;5.428;2022-09-21T07:11:49;4.90;;;1.77;;
73747;SDS011;62056;52.130;5.428;2022-09-21T07:14:16;9.27;;;2.30;;
73747;SDS011;62056;52.130;5.428;2022-09-21T07:16:43;4.28;;;1.33;;
73747;SDS011;62056;52.130;5.428;2022-09-21T07:19:10;3.22;;;1.83;;
73747;SDS011;62056;52.130;5.428;2022-09-21T07:21:37;6.65;;;1.80;;
73747;SDS011;62056;52.130;5.428;2022-09-21T07:24:04;2.00;;;1.77;;
73747;SDS011;62056;52.130;5.428;2022-09-21T07:26:37;6.15;;;2.20;;
73747;SDS011;62056;52.130;5.428;2022-09-21T07:29:04;3.50;;;2.10;;
73747;SDS011;62056;52.130;5.428;2022-09-21T07:31:31;4.47;;;1.42;;
73747;SDS011;62056;52.130;5.428;2022-09-21T07:33:58;3.95;;;2.30;;
73747;SDS011;62056;52.130;5.428;2022-09-21T07:36:24;4.33;;;1.57;;
73747;SDS011;62056;52.130;5.428;2022-09-21T07:38:51;9.00;;;1.73;;
73747;SDS011;62056;52.130;5.428;2022-09-21T07:41:19;5.90;;;2.10;;
73747;SDS011;62056;52.130;5.428;2022-09-21T07:43:46;8.05;;;1.67;;
73747;SDS011;62056;52.130;5.428;2022-09-21T07:46:13;4.53;;;1.55;;
73747;SDS011;62056;52.130;5.428;2022-09-21T07:48:40;5.77;;;2.13;;
73747;SDS011;62056;52.130;5.428;2022-09-21T07:51:08;3.55;;;1.88;;
73747;SDS011;62056;52.130;5.428;2022-09-21T07:53:37;7.72;;;1.88;;
73747;SDS011;62056;52.130;5.428;2022-09-21T07:56:06;5.75;;;1.60;;
73747;SDS011;62056;52.130;5.428;2022-09-21T07:58:34;4.53;;;1.40;;
73747;SDS011;62056;52.130;5.428;2022-09-21T08:01:20;5.50;;;2.20;;
73747;SDS011;62056;52.130;5.428;2022-09-21T08:03:48;8.02;;;2.63;;
73747;SDS011;62056;52.130;5.428;2022-09-21T08:06:16;5.93;;;2.00;;
73747;SDS011;62056;52.130;5.428;2022-09-21T08:08:45;6.57;;;1.63;;
73747;SDS011;62056;52.130;5.428;2022-09-21T08:11:17;6.82;;;2.55;;
73747;SDS011;62056;52.130;5.428;2022-09-21T08:13:48;9.20;;;2.73;;
73747;SDS011;62056;52.130;5.428;2022-09-21T08:16:18;5.72;;;2.03;;
73747;SDS011;62056;52.130;5.428;2022-09-21T08:18:44;5.00;;;2.08;;
73747;SDS011;62056;52.130;5.428;2022-09-21T08:21:11;4.57;;;2.15;;
73747;SDS011;62056;52.130;5.428;2022-09-21T08:23:38;6.80;;;2.83;;
73747;SDS011;62056;52.130;5.428;2022-09-21T08:26:05;8.13;;;2.20;;
73747;SDS011;62056;52.130;5.428;2022-09-21T08:28:33;6.05;;;1.70;;
73747;SDS011;62056;52.130;5.428;2022-09-21T08:31:04;2.88;;;1.65;;
73747;SDS011;62056;52.130;5.428;2022-09-21T08:33:33;3.55;;;1.05;;
73747;SDS011;62056;52.130;5.428;2022-09-21T08:36:00;5.85;;;1.60;;
73747;SDS011;62056;52.130;5.428;2022-09-21T08:38:34;2.83;;;1.23;;
73747;SDS011;62056;52.130;5.428;2022-09-21T08:41:18;1.90;;;1.30;;
73747;SDS011;62056;52.130;5.428;2022-09-21T08:44:15;6.53;;;1.50;;
73747;SDS011;62056;52.130;5.428;2022-09-21T08:46:47;3.63;;;1.42;;
73747;SDS011;62056;52.130;5.428;2022-09-21T08:49:34;8.95;;;2.15;;
73747;SDS011;62056;52.130;5.428;2022-09-21T08:52:11;5.50;;;1.77;;
73747;SDS011;62056;52.130;5.428;2022-09-21T08:57:28;8.02;;;1.23;;
73747;SDS011;62056;52.130;5.428;2022-09-21T08:59:57;3.17;;;1.30;;
73747;SDS011;62056;52.130;5.428;2022-09-21T09:14:13;3.88;;;1.00;;
73747;SDS011;62056;52.130;5.428;2022-09-21T09:17:22;3.10;;;0.90;;
73747;SDS011;62056;52.130;5.428;2022-09-21T09:19:56;6.33;;;1.00;;
73747;SDS011;62056;52.130;5.428;2022-09-21T09:22:31;2.78;;;0.88;;
73747;SDS011;62056;52.130;5.428;2022-09-21T09:25:04;5.85;;;0.85;;
73747;SDS011;62056;52.130;5.428;2022-09-21T09:27:47;6.15;;;0.93;;
73747;SDS011;62056;52.130;5.428;2022-09-21T09:30:21;3.00;;;0.60;;
73747;SDS011;62056;52.130;5.428;2022-09-21T09:32:55;5.30;;;2.07;;
73747;SDS011;62056;52.130;5.428;2022-09-21T09:52:15;4.22;;;1.10;;
73747;SDS011;62056;52.130;5.428;2022-09-21T09:54:42;3.30;;;1.00;;
73747;SDS011;62056;52.130;5.428;2022-09-21T09:57:10;3.60;;;0.70;;
73747;SDS011;62056;52.130;5.428;2022-09-21T09:59:47;3.40;;;1.03;;
73747;SDS011;62056;52.130;5.428;2022-09-21T10:02:22;5.30;;;0.50;;
73747;SDS011;62056;52.130;5.428;2022-09-21T10:04:59;2.95;;;0.60;;
73747;SDS011;62056;52.130;5.428;2022-09-21T10:07:39;5.43;;;0.98;;
73747;SDS011;62056;52.130;5.428;2022-09-21T10:15:30;2.92;;;0.70;;
73747;SDS011;62056;52.130;5.428;2022-09-21T10:18:03;2.75;;;0.55;;
73747;SDS011;62056;52.130;5.428;2022-09-21T10:20:50;7.78;;;0.70;;
73747;SDS011;62056;52.130;5.428;2022-09-21T10:23:21;5.97;;;1.13;;
73747;SDS011;62056;52.130;5.428;2022-09-21T10:25:55;3.10;;;0.55;;
73747;SDS011;62056;52.130;5.428;2022-09-21T10:28:25;4.88;;;1.00;;
73747;SDS011;62056;52.130;5.428;2022-09-21T10:33:48;5.93;;;1.05;;
73747;SDS011;62056;52.130;5.428;2022-09-21T10:36:24;4.90;;;0.50;;
73747;SDS011;62056;52.130;5.428;2022-09-21T10:38:52;4.00;;;0.88;;
73747;SDS011;62056;52.130;5.428;2022-09-21T10:41:19;2.25;;;0.63;;
73747;SDS011;62056;52.130;5.428;2022-09-21T10:43:46;1.67;;;0.70;;
73747;SDS011;62056;52.130;5.428;2022-09-21T10:46:15;3.33;;;0.95;;
73747;SDS011;62056;52.130;5.428;2022-09-21T10:48:44;2.33;;;0.40;;
73747;SDS011;62056;52.130;5.428;2022-09-21T10:51:19;4.73;;;0.60;;
73747;SDS011;62056;52.130;5.428;2022-09-21T10:53:54;5.30;;;0.90;;
73747;SDS011;62056;52.130;5.428;2022-09-21T10:56:21;2.55;;;0.60;;
73747;SDS011;62056;52.130;5.428;2022-09-21T10:59:11;2.35;;;0.60;;
73747;SDS011;62056;52.130;5.428;2022-09-21T11:01:59;1.70;;;0.80;;
73747;SDS011;62056;52.130;5.428;2022-09-21T11:04:31;1.73;;;1.10;;
73747;SDS011;62056;52.130;5.428;2022-09-21T11:07:08;2.67;;;1.20;;
73747;SDS011;62056;52.130;5.428;2022-09-21T11:12:31;4.30;;;0.88;;
73747;SDS011;62056;52.130;5.428;2022-09-21T11:15:18;7.13;;;1.45;;
73747;SDS011;62056;52.130;5.428;2022-09-21T11:25:57;2.15;;;1.10;;
73747;SDS011;62056;52.130;5.428;2022-09-21T11:28:37;3.30;;;0.75;;
73747;SDS011;62056;52.130;5.428;2022-09-21T11:33:52;6.20;;;0.93;;
73747;SDS011;62056;52.130;5.428;2022-09-21T11:36:32;2.67;;;0.60;;
73747;SDS011;62056;52.130;5.428;2022-09-21T11:39:12;4.05;;;1.00;;
73747;SDS011;62056;52.130;5.428;2022-09-21T11:44:37;3.20;;;0.63;;
73747;SDS011;62056;52.130;5.428;2022-09-21T11:53:19;2.05;;;0.50;;
73747;SDS011;62056;52.130;5.428;2022-09-21T11:55:58;3.65;;;0.40;;
73747;SDS011;62056;52.130;5.428;2022-09-21T11:58:30;3.75;;;0.50;;
73747;SDS011;62056;52.130;5.428;2022-09-21T12:01:12;3.40;;;0.90;;
73747;SDS011;62056;52.130;5.428;2022-09-21T12:04:13;2.17;;;0.60;;
73747;SDS011;62056;52.130;5.428;2022-09-21T12:09:35;3.05;;;0.60;;
73747;SDS011;62056;52.130;5.428;2022-09-21T12:12:28;2.88;;;0.77;;
73747;SDS011;62056;52.130;5.428;2022-09-21T12:18:05;3.30;;;0.60;;
73747;SDS011;62056;52.130;5.428;2022-09-21T12:20:50;1.63;;;0.50;;
73747;SDS011;62056;52.130;5.428;2022-09-21T12:26:07;2.15;;;0.45;;
73747;SDS011;62056;52.130;5.428;2022-09-21T12:28:39;1.02;;;0.40;;
73747;SDS011;62056;52.130;5.428;2022-09-21T12:34:00;1.33;;;0.65;;
73747;SDS011;62056;52.130;5.428;2022-09-21T12:36:36;3.95;;;0.57;;
73747;SDS011;62056;52.130;5.428;2022-09-21T12:42:04;0.75;;;0.40;;
73747;SDS011;62056;52.130;5.428;2022-09-21T12:44:50;3.28;;;0.57;;
73747;SDS011;62056;52.130;5.428;2022-09-21T12:49:55;2.35;;;0.60;;
73747;SDS011;62056;52.130;5.428;2022-09-21T12:52:27;3.10;;;0.47;;
73747;SDS011;62056;52.130;5.428;2022-09-21T12:57:55;0.77;;;0.38;;
73747;SDS011;62056;52.130;5.428;2022-09-21T13:00:53;5.70;;;0.60;;
73747;SDS011;62056;52.130;5.428;2022-09-21T13:03:31;1.90;;;0.60;;
73747;SDS011;62056;52.130;5.428;2022-09-21T13:08:50;1.20;;;0.50;;
73747;SDS011;62056;52.130;5.428;2022-09-21T13:11:18;5.03;;;0.60;;
73747;SDS011;62056;52.130;5.428;2022-09-21T13:13:48;2.53;;;0.55;;
73747;SDS011;62056;52.130;5.428;2022-09-21T13:18:55;3.30;;;0.50;;
73747;SDS011;62056;52.130;5.428;2022-09-21T13:21:26;3.17;;;0.40;;
73747;SDS011;62056;52.130;5.428;2022-09-21T13:24:00;1.05;;;0.40;;
73747;SDS011;62056;52.130;5.428;2022-09-21T13:26:53;1.95;;;0.47;;
73747;SDS011;62056;52.130;5.428;2022-09-21T13:34:37;2.72;;;0.40;;
73747;SDS011;62056;52.130;5.428;2022-09-21T13:44:57;1.63;;;0.80;;
73747;SDS011;62056;52.130;5.428;2022-09-21T13:47:27;2.10;;;0.60;;
73747;SDS011;62056;52.130;5.428;2022-09-21T13:49:57;2.72;;;1.00;;
73747;SDS011;62056;52.130;5.428;2022-09-21T13:52:37;1.67;;;0.60;;
73747;SDS011;62056;52.130;5.428;2022-09-21T13:58:01;1.33;;;0.45;;
73747;SDS011;62056;52.130;5.428;2022-09-21T14:00:32;3.40;;;0.40;;
73747;SDS011;62056;52.130;5.428;2022-09-21T14:03:18;2.65;;;0.70;;
73747;SDS011;62056;52.130;5.428;2022-09-21T14:05:52;2.30;;;0.82;;
73747;SDS011;62056;52.130;5.428;2022-09-21T14:08:30;2.42;;;0.63;;
73747;SDS011;62056;52.130;5.428;2022-09-21T14:11:02;4.40;;;0.70;;
73747;SDS011;62056;52.130;5.428;2022-09-21T14:13:35;1.93;;;0.77;;
73747;SDS011;62056;52.130;5.428;2022-09-21T14:18:55;2.45;;;0.82;;
73747;SDS011;62056;52.130;5.428;2022-09-21T14:21:22;1.17;;;0.43;;
73747;SDS011;62056;52.130;5.428;2022-09-21T14:24:07;1.63;;;0.47;;
73747;SDS011;62056;52.130;5.428;2022-09-21T14:32:02;2.20;;;0.80;;
73747;SDS011;62056;52.130;5.428;2022-09-21T14:34:34;2.13;;;0.50;;
73747;SDS011;62056;52.130;5.428;2022-09-21T14:37:09;3.38;;;0.50;;
73747;SDS011;62056;52.130;5.428;2022-09-21T14:39:44;2.13;;;0.70;;
73747;SDS011;62056;52.130;5.428;2022-09-21T14:42:16;2.03;;;0.60;;
73747;SDS011;62056;52.130;5.428;2022-09-21T14:44:48;1.88;;;0.57;;
73747;SDS011;62056;52.130;5.428;2022-09-21T14:52:50;1.80;;;0.93;;
73747;SDS011;62056;52.130;5.428;2022-09-21T14:55:53;2.13;;;0.68;;
73747;SDS011;62056;52.130;5.428;2022-09-21T15:01:13;4.28;;;1.50;;
73747;SDS011;62056;52.130;5.428;2022-09-21T15:06:30;2.73;;;0.70;;
73747;SDS011;62056;52.130;5.428;2022-09-21T15:12:22;3.55;;;0.65;;
73747;SDS011;62056;52.130;5.428;2022-09-21T15:15:17;6.80;;;3.38;;
73747;SDS011;62056;52.130;5.428;2022-09-21T15:18:13;7.45;;;2.75;;
73747;SDS011;62056;52.130;5.428;2022-09-21T15:20:58;2.00;;;0.77;;
73747;SDS011;62056;52.130;5.428;2022-09-21T15:23:37;4.72;;;1.05;;
73747;SDS011;62056;52.130;5.428;2022-09-21T15:26:12;2.35;;;0.63;;
73747;SDS011;62056;52.130;5.428;2022-09-21T15:28:47;1.92;;;1.73;;
73747;SDS011;62056;52.130;5.428;2022-09-21T15:31:38;1.87;;;0.63;;
73747;SDS011;62056;52.130;5.428;2022-09-21T15:34:07;3.80;;;0.60;;
73747;SDS011;62056;52.130;5.428;2022-09-21T15:36:39;5.70;;;0.85;;
73747;SDS011;62056;52.130;5.428;2022-09-21T15:39:28;2.92;;;0.70;;
73747;SDS011;62056;52.130;5.428;2022-09-21T15:44:36;7.10;;;0.60;;
73747;SDS011;62056;52.130;5.428;2022-09-21T15:47:08;4.20;;;0.70;;
73747;SDS011;62056;52.130;5.428;2022-09-21T15:49:37;1.90;;;0.70;;
73747;SDS011;62056;52.130;5.428;2022-09-21T15:54:35;1.38;;;0.50;;
73747;SDS011;62056;52.130;5.428;2022-09-21T15:57:21;2.40;;;0.57;;
73747;SDS011;62056;52.130;5.428;2022-09-21T15:59:51;4.22;;;0.60;;
73747;SDS011;62056;52.130;5.428;2022-09-21T16:02:22;1.48;;;0.50;;
73747;SDS011;62056;52.130;5.428;2022-09-21T16:04:51;2.30;;;0.93;;
73747;SDS011;62056;52.130;5.428;2022-09-21T16:09:52;2.72;;;0.60;;
73747;SDS011;62056;52.130;5.428;2022-09-21T16:14:51;5.43;;;0.55;;
73747;SDS011;62056;52.130;5.428;2022-09-21T16:17:27;2.15;;;0.50;;
73747;SDS011;62056;52.130;5.428;2022-09-21T16:22:23;1.25;;;0.30;;
73747;SDS011;62056;52.130;5.428;2022-09-21T16:24:55;2.10;;;0.73;;
73747;SDS011;62056;52.130;5.428;2022-09-21T16:27:26;1.92;;;0.73;;
73747;SDS011;62056;52.130;5.428;2022-09-21T16:29:55;4.30;;;0.73;;
73747;SDS011;62056;52.130;5.428;2022-09-21T16:34:52;1.98;;;0.70;;
73747;SDS011;62056;52.130;5.428;2022-09-21T16:37:47;2.83;;;0.68;;
73747;SDS011;62056;52.130;5.428;2022-09-21T16:40:14;2.55;;;0.52;;
73747;SDS011;62056;52.130;5.428;2022-09-21T16:42:40;2.40;;;0.82;;
73747;SDS011;62056;52.130;5.428;2022-09-21T16:45:09;2.78;;;0.50;;
73747;SDS011;62056;52.130;5.428;2022-09-21T16:47:48;2.45;;;0.77;;
73747;SDS011;62056;52.130;5.428;2022-09-21T16:50:16;2.35;;;0.95;;
73747;SDS011;62056;52.130;5.428;2022-09-21T16:52:44;2.22;;;0.50;;
73747;SDS011;62056;52.130;5.428;2022-09-21T16:55:13;6.43;;;0.80;;
73747;SDS011;62056;52.130;5.428;2022-09-21T16:57:43;3.70;;;0.77;;
73747;SDS011;62056;52.130;5.428;2022-09-21T17:00:11;3.13;;;0.55;;
73747;SDS011;62056;52.130;5.428;2022-09-21T17:02:39;1.20;;;0.63;;
73747;SDS011;62056;52.130;5.428;2022-09-21T17:05:08;1.88;;;0.57;;
73747;SDS011;62056;52.130;5.428;2022-09-21T17:07:35;1.73;;;0.60;;
73747;SDS011;62056;52.130;5.428;2022-09-21T17:10:08;2.15;;;0.65;;
73747;SDS011;62056;52.130;5.428;2022-09-21T17:12:38;2.05;;;0.43;;
73747;SDS011;62056;52.130;5.428;2022-09-21T17:15:10;1.42;;;0.60;;
73747;SDS011;62056;52.130;5.428;2022-09-21T17:17:38;3.70;;;0.85;;
73747;SDS011;62056;52.130;5.428;2022-09-21T17:20:16;2.90;;;0.90;;
73747;SDS011;62056;52.130;5.428;2022-09-21T17:22:50;1.83;;;0.70;;
73747;SDS011;62056;52.130;5.428;2022-09-21T17:25:17;3.55;;;0.90;;
73747;SDS011;62056;52.130;5.428;2022-09-21T17:27:44;5.60;;;1.25;;
73747;SDS011;62056;52.130;5.428;2022-09-21T17:30:11;2.72;;;1.15;;
73747;SDS011;62056;52.130;5.428;2022-09-21T17:32:39;4.32;;;1.00;;
73747;SDS011;62056;52.130;5.428;2022-09-21T17:37:56;3.53;;;1.00;;
73747;SDS011;62056;52.130;5.428;2022-09-21T17:40:24;1.95;;;0.65;;
73747;SDS011;62056;52.130;5.428;2022-09-21T17:42:53;7.00;;;1.00;;
73747;SDS011;62056;52.130;5.428;2022-09-21T17:48:03;5.47;;;1.08;;
73747;SDS011;62056;52.130;5.428;2022-09-21T17:50:30;2.50;;;1.00;;
73747;SDS011;62056;52.130;5.428;2022-09-21T17:52:57;4.30;;;1.30;;
73747;SDS011;62056;52.130;5.428;2022-09-21T17:55:49;3.03;;;1.67;;
73747;SDS011;62056;52.130;5.428;2022-09-21T18:03:58;4.60;;;1.83;;
73747;SDS011;62056;52.130;5.428;2022-09-21T18:06:25;3.47;;;1.98;;
73747;SDS011;62056;52.130;5.428;2022-09-21T18:08:52;4.80;;;1.55;;
73747;SDS011;62056;52.130;5.428;2022-09-21T18:20:17;4.15;;;1.67;;
73747;SDS011;62056;52.130;5.428;2022-09-21T18:23:05;4.18;;;1.98;;
73747;SDS011;62056;52.130;5.428;2022-09-21T18:25:51;3.15;;;1.58;;
73747;SDS011;62056;52.130;5.428;2022-09-21T18:42:42;5.40;;;4.10;;
73747;SDS011;62056;52.130;5.428;2022-09-21T18:45:38;7.15;;;4.93;;
73747;SDS011;62056;52.130;5.428;2022-09-21T18:50:58;5.63;;;4.20;;
73747;SDS011;62056;52.130;5.428;2022-09-21T18:56:14;5.80;;;2.78;;
73747;SDS011;62056;52.130;5.428;2022-09-21T18:58:41;4.23;;;2.53;;
73747;SDS011;62056;52.130;5.428;2022-09-21T19:01:11;5.65;;;2.33;;
73747;SDS011;62056;52.130;5.428;2022-09-21T19:03:39;6.35;;;2.60;;
73747;SDS011;62056;52.130;5.428;2022-09-21T19:14:32;3.97;;;2.83;;
73747;SDS011;62056;52.130;5.428;2022-09-21T19:20:11;4.38;;;3.22;;
73747;SDS011;62056;52.130;5.428;2022-09-21T19:25:40;4.47;;;2.87;;